sensor_id;sensor_type;location;lat;lon;timestamp;temperature;humidity
14277;DHT22;7222;57.346;12.150;2023-02-18T00:01:09;6.70;99.90
14277;DHT22;7222;57.346;12.150;2023-02-18T00:03:36;6.60;99.90
14277;DHT22;7222;57.346;12.150;2023-02-18T00:06:12;6.70;99.90
14277;DHT22;7222;57.346;12.150;2023-02-18T00:08:39;6.70;99.90
14277;DHT22;7222;57.346;12.150;2023-02-18T00:11:07;6.70;99.90
14277;DHT22;7222;57.346;12.150;2023-02-18T00:13:34;6.60;99.90
14277;DHT22;7222;57.346;12.150;2023-02-18T00:16:01;6.60;99.90
14277;DHT22;7222;57.346;12.150;2023-02-18T00:18:28;6.60;99.90
14277;DHT22;7222;57.346;12.150;2023-02-18T00:20:56;6.60;99.90
14277;DHT22;7222;57.346;12.150;2023-02-18T00:23:24;6.60;99.90
14277;DHT22;7222;57.346;12.150;2023-02-18T00:25:58;6.60;99.90
14277;DHT22;7222;57.346;12.150;2023-02-18T00:28:25;6.60;99.90
14277;DHT22;7222;57.346;12.150;2023-02-18T00:30:52;6.50;99.90
14277;DHT22;7222;57.346;12.150;2023-02-18T00:33:19;6.50;99.90
14277;DHT22;7222;57.346;12.150;2023-02-18T00:35:46;6.50;99.90
14277;DHT22;7222;57.346;12.150;2023-02-18T00:38:13;6.50;99.90
14277;DHT22;7222;57.346;12.150;2023-02-18T00:40:41;6.40;99.90
14277;DHT22;7222;57.346;12.150;2023-02-18T00:43:09;6.50;99.90
14277;DHT22;7222;57.346;12.150;2023-02-18T00:45:36;6.50;99.90
14277;DHT22;7222;57.346;12.150;2023-02-18T00:48:03;6.50;99.90
14277;DHT22;7222;57.346;12.150;2023-02-18T00:50:30;6.40;99.90
14277;DHT22;7222;57.346;12.150;2023-02-18T00:52:56;6.40;99.90
14277;DHT22;7222;57.346;12.150;2023-02-18T00:55:23;6.40;99.90
14277;DHT22;7222;57.346;12.150;2023-02-18T00:57:52;6.40;99.90
14277;DHT22;7222;57.346;12.150;2023-02-18T01:00:19;6.40;99.90
14277;DHT22;7222;57.346;12.150;2023-02-18T01:02:46;6.30;99.90
14277;DHT22;7222;57.346;12.150;2023-02-18T01:05:13;6.40;99.90
14277;DHT22;7222;57.346;12.150;2023-02-18T01:07:40;6.30;99.90
14277;DHT22;7222;57.346;12.150;2023-02-18T01:10:07;6.30;99.90
14277;DHT22;7222;57.346;12.150;2023-02-18T01:12:34;6.20;99.90
14277;DHT22;7222;57.346;12.150;2023-02-18T01:15:03;6.30;99.90
14277;DHT22;7222;57.346;12.150;2023-02-18T01:17:31;6.20;99.90
14277;DHT22;7222;57.346;12.150;2023-02-18T01:19:58;6.10;99.90
14277;DHT22;7222;57.346;12.150;2023-02-18T01:22:25;6.00;99.90
14277;DHT22;7222;57.346;12.150;2023-02-18T01:24:52;6.00;99.90
14277;DHT22;7222;57.346;12.150;2023-02-18T01:27:19;6.10;99.90
14277;DHT22;7222;57.346;12.150;2023-02-18T01:29:46;6.10;99.90
14277;DHT22;7222;57.346;12.150;2023-02-18T01:32:15;6.10;99.90
14277;DHT22;7222;57.346;12.150;2023-02-18T01:34:42;6.10;99.90
14277;DHT22;7222;57.346;12.150;2023-02-18T01:37:09;6.10;99.90
14277;DHT22;7222;57.346;12.150;2023-02-18T01:39:35;6.00;99.90
14277;DHT22;7222;57.346;12.150;2023-02-18T01:42:03;6.00;99.90
14277;DHT22;7222;57.346;12.150;2023-02-18T01:44:33;6.00;99.90
14277;DHT22;7222;57.346;12.150;2023-02-18T01:47:00;6.00;99.90
14277;DHT22;7222;57.346;12.150;2023-02-18T01:49:31;6.00;99.90
14277;DHT22;7222;57.346;12.150;2023-02-18T01:52:02;6.10;99.90
14277;DHT22;7222;57.346;12.150;2023-02-18T01:54:33;6.10;99.90
14277;DHT22;7222;57.346;12.150;2023-02-18T01:57:05;6.00;99.90
14277;DHT22;7222;57.346;12.150;2023-02-18T01:59:36;6.00;99.90
14277;DHT22;7222;57.346;12.150;2023-02-18T02:02:06;5.90;99.90
14277;DHT22;7222;57.346;12.150;2023-02-18T02:04:36;5.90;99.90
14277;DHT22;7222;57.346;12.150;2023-02-18T02:07:03;5.90;99.90
14277;DHT22;7222;57.346;12.150;2023-02-18T02:09:30;5.90;99.90
14277;DHT22;7222;57.346;12.150;2023-02-18T02:12:35;6.00;99.90
14277;DHT22;7222;57.346;12.150;2023-02-18T02:15:23;5.90;99.90
14277;DHT22;7222;57.346;12.150;2023-02-18T02:18:04;6.00;99.90
14277;DHT22;7222;57.346;12.150;2023-02-18T02:20:55;6.00;99.90
14277;DHT22;7222;57.346;12.150;2023-02-18T02:24:01;6.00;99.90
14277;DHT22;7222;57.346;12.150;2023-02-18T02:29:59;5.80;99.90
14277;DHT22;7222;57.346;12.150;2023-02-18T02:35:36;5.70;99.90
14277;DHT22;7222;57.346;12.150;2023-02-18T02:38:07;5.80;99.90
14277;DHT22;7222;57.346;12.150;2023-02-18T02:40:43;5.80;99.90
14277;DHT22;7222;57.346;12.150;2023-02-18T02:43:16;5.80;99.90
14277;DHT22;7222;57.346;12.150;2023-02-18T02:45:52;5.90;99.90
14277;DHT22;7222;57.346;12.150;2023-02-18T02:48:27;5.70;99.90
14277;DHT22;7222;57.346;12.150;2023-02-18T02:51:03;5.70;99.90
14277;DHT22;7222;57.346;12.150;2023-02-18T02:53:34;5.70;99.90
14277;DHT22;7222;57.346;12.150;2023-02-18T02:56:01;5.70;99.90
14277;DHT22;7222;57.346;12.150;2023-02-18T02:58:28;5.60;99.90
14277;DHT22;7222;57.346;12.150;2023-02-18T03:01:06;5.70;99.90
14277;DHT22;7222;57.346;12.150;2023-02-18T03:03:49;5.60;99.90
14277;DHT22;7222;57.346;12.150;2023-02-18T03:06:57;5.70;99.90
14277;DHT22;7222;57.346;12.150;2023-02-18T03:09:32;5.70;99.90
14277;DHT22;7222;57.346;12.150;2023-02-18T03:12:07;5.60;99.90
14277;DHT22;7222;57.346;12.150;2023-02-18T03:14:45;5.60;99.90
14277;DHT22;7222;57.346;12.150;2023-02-18T03:17:18;5.50;99.90
14277;DHT22;7222;57.346;12.150;2023-02-18T03:19:53;5.60;99.90
14277;DHT22;7222;57.346;12.150;2023-02-18T03:22:26;5.50;99.90
14277;DHT22;7222;57.346;12.150;2023-02-18T03:24:55;5.60;99.90
14277;DHT22;7222;57.346;12.150;2023-02-18T03:27:26;5.70;99.90
14277;DHT22;7222;57.346;12.150;2023-02-18T03:30:00;5.60;99.90
14277;DHT22;7222;57.346;12.150;2023-02-18T03:32:28;5.70;99.90
14277;DHT22;7222;57.346;12.150;2023-02-18T03:35:02;5.60;99.90
14277;DHT22;7222;57.346;12.150;2023-02-18T03:37:32;5.50;99.90
14277;DHT22;7222;57.346;12.150;2023-02-18T03:40:02;5.50;99.90
14277;DHT22;7222;57.346;12.150;2023-02-18T03:42:29;5.50;99.90
14277;DHT22;7222;57.346;12.150;2023-02-18T03:44:56;5.50;99.90
14277;DHT22;7222;57.346;12.150;2023-02-18T03:47:24;5.60;99.90
14277;DHT22;7222;57.346;12.150;2023-02-18T03:49:51;5.60;99.90
14277;DHT22;7222;57.346;12.150;2023-02-18T03:52:18;5.60;99.90
14277;DHT22;7222;57.346;12.150;2023-02-18T03:54:46;5.50;99.90
14277;DHT22;7222;57.346;12.150;2023-02-18T03:57:13;5.50;99.90
14277;DHT22;7222;57.346;12.150;2023-02-18T03:59:40;5.40;99.90
14277;DHT22;7222;57.346;12.150;2023-02-18T04:02:07;5.40;99.90
14277;DHT22;7222;57.346;12.150;2023-02-18T04:04:34;5.60;99.90
14277;DHT22;7222;57.346;12.150;2023-02-18T04:07:01;5.60;99.90
14277;DHT22;7222;57.346;12.150;2023-02-18T04:09:28;5.50;99.90
14277;DHT22;7222;57.346;12.150;2023-02-18T04:11:57;5.50;99.90
14277;DHT22;7222;57.346;12.150;2023-02-18T04:14:24;5.50;99.90
14277;DHT22;7222;57.346;12.150;2023-02-18T04:16:51;5.50;99.90
14277;DHT22;7222;57.346;12.150;2023-02-18T04:19:17;5.40;99.90
14277;DHT22;7222;57.346;12.150;2023-02-18T04:21:44;5.40;99.90
14277;DHT22;7222;57.346;12.150;2023-02-18T04:24:11;5.40;99.90
14277;DHT22;7222;57.346;12.150;2023-02-18T04:26:38;5.30;99.90
14277;DHT22;7222;57.346;12.150;2023-02-18T04:29:07;5.40;99.90
14277;DHT22;7222;57.346;12.150;2023-02-18T04:31:33;5.50;99.90
14277;DHT22;7222;57.346;12.150;2023-02-18T04:34:00;5.40;99.90
14277;DHT22;7222;57.346;12.150;2023-02-18T04:36:27;5.40;99.90
14277;DHT22;7222;57.346;12.150;2023-02-18T04:38:54;5.30;99.90
14277;DHT22;7222;57.346;12.150;2023-02-18T04:41:21;5.40;99.90
14277;DHT22;7222;57.346;12.150;2023-02-18T04:43:48;5.40;99.90
14277;DHT22;7222;57.346;12.150;2023-02-18T04:46:17;5.40;99.90
14277;DHT22;7222;57.346;12.150;2023-02-18T04:48:44;5.20;99.90
14277;DHT22;7222;57.346;12.150;2023-02-18T04:51:11;5.20;99.90
14277;DHT22;7222;57.346;12.150;2023-02-18T04:53:38;5.20;99.90
14277;DHT22;7222;57.346;12.150;2023-02-18T04:56:05;5.40;99.90
14277;DHT22;7222;57.346;12.150;2023-02-18T04:58:32;5.20;99.90
14277;DHT22;7222;57.346;12.150;2023-02-18T05:00:59;5.40;99.90
14277;DHT22;7222;57.346;12.150;2023-02-18T05:03:28;5.30;99.90
14277;DHT22;7222;57.346;12.150;2023-02-18T05:05:55;5.40;99.90
14277;DHT22;7222;57.346;12.150;2023-02-18T05:08:22;5.40;99.90
14277;DHT22;7222;57.346;12.150;2023-02-18T05:10:49;5.40;99.90
14277;DHT22;7222;57.346;12.150;2023-02-18T05:13:16;5.30;99.90
14277;DHT22;7222;57.346;12.150;2023-02-18T05:15:43;5.30;99.90
14277;DHT22;7222;57.346;12.150;2023-02-18T05:18:10;5.30;99.90
14277;DHT22;7222;57.346;12.150;2023-02-18T05:20:39;5.40;99.90
14277;DHT22;7222;57.346;12.150;2023-02-18T05:23:06;5.30;99.90
14277;DHT22;7222;57.346;12.150;2023-02-18T05:25:32;5.40;99.90
14277;DHT22;7222;57.346;12.150;2023-02-18T05:27:59;5.40;99.90
14277;DHT22;7222;57.346;12.150;2023-02-18T05:30:26;5.30;99.90
14277;DHT22;7222;57.346;12.150;2023-02-18T05:32:53;5.30;99.90
14277;DHT22;7222;57.346;12.150;2023-02-18T05:35:20;5.50;99.90
14277;DHT22;7222;57.346;12.150;2023-02-18T05:37:48;5.40;99.90
14277;DHT22;7222;57.346;12.150;2023-02-18T05:40:15;5.30;99.90
14277;DHT22;7222;57.346;12.150;2023-02-18T05:42:42;5.30;99.90
14277;DHT22;7222;57.346;12.150;2023-02-18T05:45:09;5.30;99.90
14277;DHT22;7222;57.346;12.150;2023-02-18T05:47:36;5.40;99.90
14277;DHT22;7222;57.346;12.150;2023-02-18T05:50:04;5.40;99.90
14277;DHT22;7222;57.346;12.150;2023-02-18T05:52:31;5.30;99.90
14277;DHT22;7222;57.346;12.150;2023-02-18T05:55:00;5.20;99.90
14277;DHT22;7222;57.346;12.150;2023-02-18T05:57:27;5.20;99.90
14277;DHT22;7222;57.346;12.150;2023-02-18T05:59:54;5.20;99.90
14277;DHT22;7222;57.346;12.150;2023-02-18T06:02:20;5.10;99.90
14277;DHT22;7222;57.346;12.150;2023-02-18T06:04:48;5.20;99.90
14277;DHT22;7222;57.346;12.150;2023-02-18T06:07:15;5.20;99.90
14277;DHT22;7222;57.346;12.150;2023-02-18T06:09:41;5.20;99.90
14277;DHT22;7222;57.346;12.150;2023-02-18T06:12:10;5.30;99.90
14277;DHT22;7222;57.346;12.150;2023-02-18T06:14:37;5.30;99.90
14277;DHT22;7222;57.346;12.150;2023-02-18T06:17:06;5.20;99.90
14277;DHT22;7222;57.346;12.150;2023-02-18T06:19:34;5.10;99.90
14277;DHT22;7222;57.346;12.150;2023-02-18T06:22:01;5.10;99.90
14277;DHT22;7222;57.346;12.150;2023-02-18T06:24:28;5.10;99.90
14277;DHT22;7222;57.346;12.150;2023-02-18T06:26:55;5.10;99.90
14277;DHT22;7222;57.346;12.150;2023-02-18T06:29:23;5.00;99.90
14277;DHT22;7222;57.346;12.150;2023-02-18T06:31:50;5.10;99.90
14277;DHT22;7222;57.346;12.150;2023-02-18T06:34:17;5.20;99.90
14277;DHT22;7222;57.346;12.150;2023-02-18T06:36:44;5.20;99.90
14277;DHT22;7222;57.346;12.150;2023-02-18T06:39:11;5.20;99.90
14277;DHT22;7222;57.346;12.150;2023-02-18T06:41:38;5.10;99.90
14277;DHT22;7222;57.346;12.150;2023-02-18T06:44:06;5.10;99.90
14277;DHT22;7222;57.346;12.150;2023-02-18T06:46:34;5.10;99.90
14277;DHT22;7222;57.346;12.150;2023-02-18T06:49:02;5.20;99.90
14277;DHT22;7222;57.346;12.150;2023-02-18T06:51:29;5.10;99.90
14277;DHT22;7222;57.346;12.150;2023-02-18T06:53:56;5.10;99.90
14277;DHT22;7222;57.346;12.150;2023-02-18T06:56:22;5.20;99.90
14277;DHT22;7222;57.346;12.150;2023-02-18T06:58:49;5.20;99.90
14277;DHT22;7222;57.346;12.150;2023-02-18T07:01:16;5.20;99.90
14277;DHT22;7222;57.346;12.150;2023-02-18T07:03:45;5.20;99.90
14277;DHT22;7222;57.346;12.150;2023-02-18T07:06:12;5.20;99.90
14277;DHT22;7222;57.346;12.150;2023-02-18T07:08:38;5.10;99.90
14277;DHT22;7222;57.346;12.150;2023-02-18T07:11:06;5.20;99.90
14277;DHT22;7222;57.346;12.150;2023-02-18T07:13:33;5.10;99.90
14277;DHT22;7222;57.346;12.150;2023-02-18T07:16:00;5.20;99.90
14277;DHT22;7222;57.346;12.150;2023-02-18T07:18:27;5.30;99.90
14277;DHT22;7222;57.346;12.150;2023-02-18T07:20:55;5.30;99.90
14277;DHT22;7222;57.346;12.150;2023-02-18T07:23:22;5.30;99.90
14277;DHT22;7222;57.346;12.150;2023-02-18T07:25:49;5.30;99.90
14277;DHT22;7222;57.346;12.150;2023-02-18T07:28:16;5.40;99.90
14277;DHT22;7222;57.346;12.150;2023-02-18T07:30:43;5.40;99.90
14277;DHT22;7222;57.346;12.150;2023-02-18T07:33:10;5.50;99.90
14277;DHT22;7222;57.346;12.150;2023-02-18T07:35:38;5.50;99.90
14277;DHT22;7222;57.346;12.150;2023-02-18T07:38:07;5.50;99.90
14277;DHT22;7222;57.346;12.150;2023-02-18T07:40:34;5.50;99.90
14277;DHT22;7222;57.346;12.150;2023-02-18T07:43:01;5.60;99.90
14277;DHT22;7222;57.346;12.150;2023-02-18T07:45:28;5.60;99.90
14277;DHT22;7222;57.346;12.150;2023-02-18T07:47:55;5.70;99.90
14277;DHT22;7222;57.346;12.150;2023-02-18T07:50:22;5.60;99.90
14277;DHT22;7222;57.346;12.150;2023-02-18T07:52:49;5.70;99.90
14277;DHT22;7222;57.346;12.150;2023-02-18T07:55:18;5.70;99.90
14277;DHT22;7222;57.346;12.150;2023-02-18T07:57:45;5.70;99.90
14277;DHT22;7222;57.346;12.150;2023-02-18T08:00:25;5.70;99.90
14277;DHT22;7222;57.346;12.150;2023-02-18T08:02:52;5.70;99.90
14277;DHT22;7222;57.346;12.150;2023-02-18T08:05:19;5.70;99.90
14277;DHT22;7222;57.346;12.150;2023-02-18T08:07:46;5.70;99.90
14277;DHT22;7222;57.346;12.150;2023-02-18T08:10:13;5.70;99.90
14277;DHT22;7222;57.346;12.150;2023-02-18T08:12:41;5.70;99.90
14277;DHT22;7222;57.346;12.150;2023-02-18T08:15:08;5.70;99.90
14277;DHT22;7222;57.346;12.150;2023-02-18T08:17:35;5.80;99.90
14277;DHT22;7222;57.346;12.150;2023-02-18T08:20:02;5.80;99.90
14277;DHT22;7222;57.346;12.150;2023-02-18T08:22:30;6.00;99.90
14277;DHT22;7222;57.346;12.150;2023-02-18T08:24:57;5.90;99.90
14277;DHT22;7222;57.346;12.150;2023-02-18T08:27:24;6.00;99.90
14277;DHT22;7222;57.346;12.150;2023-02-18T08:29:52;6.00;99.90
14277;DHT22;7222;57.346;12.150;2023-02-18T08:32:20;5.90;99.90
14277;DHT22;7222;57.346;12.150;2023-02-18T08:34:47;6.10;99.90
14277;DHT22;7222;57.346;12.150;2023-02-18T08:37:14;6.10;99.90
14277;DHT22;7222;57.346;12.150;2023-02-18T08:39:41;6.10;99.90
14277;DHT22;7222;57.346;12.150;2023-02-18T08:42:08;6.10;99.90
14277;DHT22;7222;57.346;12.150;2023-02-18T08:44:35;6.00;99.90
14277;DHT22;7222;57.346;12.150;2023-02-18T08:47:04;6.10;99.90
14277;DHT22;7222;57.346;12.150;2023-02-18T08:49:30;6.10;99.90
14277;DHT22;7222;57.346;12.150;2023-02-18T08:51:57;6.10;99.90
14277;DHT22;7222;57.346;12.150;2023-02-18T08:54:24;6.00;99.90
14277;DHT22;7222;57.346;12.150;2023-02-18T08:56:53;6.10;99.90
14277;DHT22;7222;57.346;12.150;2023-02-18T08:59:20;6.20;99.90
14277;DHT22;7222;57.346;12.150;2023-02-18T09:01:47;6.20;99.90
14277;DHT22;7222;57.346;12.150;2023-02-18T09:04:15;6.30;99.90
14277;DHT22;7222;57.346;12.150;2023-02-18T09:06:42;6.30;99.90
14277;DHT22;7222;57.346;12.150;2023-02-18T09:09:11;6.40;99.90
14277;DHT22;7222;57.346;12.150;2023-02-18T09:11:38;6.40;99.90
14277;DHT22;7222;57.346;12.150;2023-02-18T09:14:05;6.70;99.90
14277;DHT22;7222;57.346;12.150;2023-02-18T09:16:32;6.80;99.90
14277;DHT22;7222;57.346;12.150;2023-02-18T09:18:59;6.90;99.90
14277;DHT22;7222;57.346;12.150;2023-02-18T09:21:27;6.80;99.90
14277;DHT22;7222;57.346;12.150;2023-02-18T09:23:55;7.00;99.90
14277;DHT22;7222;57.346;12.150;2023-02-18T09:26:22;7.00;99.90
14277;DHT22;7222;57.346;12.150;2023-02-18T09:28:50;7.10;99.90
14277;DHT22;7222;57.346;12.150;2023-02-18T09:31:19;7.10;99.90
14277;DHT22;7222;57.346;12.150;2023-02-18T09:33:49;7.10;99.90
14277;DHT22;7222;57.346;12.150;2023-02-18T09:36:17;7.00;99.90
14277;DHT22;7222;57.346;12.150;2023-02-18T09:38:46;7.00;99.90
14277;DHT22;7222;57.346;12.150;2023-02-18T09:41:18;6.90;99.90
14277;DHT22;7222;57.346;12.150;2023-02-18T09:43:50;6.80;99.90
14277;DHT22;7222;57.346;12.150;2023-02-18T09:46:21;6.90;99.90
14277;DHT22;7222;57.346;12.150;2023-02-18T09:48:50;6.90;99.90
14277;DHT22;7222;57.346;12.150;2023-02-18T09:51:18;6.70;99.90
14277;DHT22;7222;57.346;12.150;2023-02-18T09:53:47;6.80;99.90
14277;DHT22;7222;57.346;12.150;2023-02-18T09:56:17;6.90;99.90
14277;DHT22;7222;57.346;12.150;2023-02-18T09:58:46;6.90;99.90
14277;DHT22;7222;57.346;12.150;2023-02-18T10:01:20;6.80;99.90
14277;DHT22;7222;57.346;12.150;2023-02-18T10:03:51;6.70;99.90
14277;DHT22;7222;57.346;12.150;2023-02-18T10:06:21;6.90;99.90
14277;DHT22;7222;57.346;12.150;2023-02-18T10:08:53;6.90;99.90
14277;DHT22;7222;57.346;12.150;2023-02-18T10:11:23;6.80;99.90
14277;DHT22;7222;57.346;12.150;2023-02-18T10:13:54;6.80;99.90
14277;DHT22;7222;57.346;12.150;2023-02-18T10:16:23;6.80;99.90
14277;DHT22;7222;57.346;12.150;2023-02-18T10:18:53;6.70;99.90
14277;DHT22;7222;57.346;12.150;2023-02-18T10:21:23;6.70;99.90
14277;DHT22;7222;57.346;12.150;2023-02-18T10:23:58;6.60;99.90
14277;DHT22;7222;57.346;12.150;2023-02-18T10:26:28;6.70;99.90
14277;DHT22;7222;57.346;12.150;2023-02-18T10:28:56;6.70;99.90
14277;DHT22;7222;57.346;12.150;2023-02-18T10:31:27;6.70;99.90
14277;DHT22;7222;57.346;12.150;2023-02-18T10:33:59;6.70;99.90
14277;DHT22;7222;57.346;12.150;2023-02-18T10:36:34;6.80;99.90
14277;DHT22;7222;57.346;12.150;2023-02-18T10:39:18;6.70;99.90
14277;DHT22;7222;57.346;12.150;2023-02-18T10:41:52;6.90;99.90
14277;DHT22;7222;57.346;12.150;2023-02-18T10:44:29;7.10;99.90
14277;DHT22;7222;57.346;12.150;2023-02-18T10:47:05;8.00;99.90
14277;DHT22;7222;57.346;12.150;2023-02-18T10:49:54;9.30;99.90
14277;DHT22;7222;57.346;12.150;2023-02-18T10:52:22;8.70;99.90
14277;DHT22;7222;57.346;12.150;2023-02-18T10:54:58;10.40;99.90
14277;DHT22;7222;57.346;12.150;2023-02-18T10:57:25;10.90;99.90
14277;DHT22;7222;57.346;12.150;2023-02-18T10:59:55;11.60;1.00
14277;DHT22;7222;57.346;12.150;2023-02-18T11:02:26;11.20;1.00
14277;DHT22;7222;57.346;12.150;2023-02-18T11:04:56;11.50;1.00
14277;DHT22;7222;57.346;12.150;2023-02-18T11:07:28;11.40;99.90
14277;DHT22;7222;57.346;12.150;2023-02-18T11:09:58;12.10;1.00
14277;DHT22;7222;57.346;12.150;2023-02-18T11:12:29;10.70;1.00
14277;DHT22;7222;57.346;12.150;2023-02-18T11:15:14;11.10;1.00
14277;DHT22;7222;57.346;12.150;2023-02-18T11:17:43;12.00;1.00
14277;DHT22;7222;57.346;12.150;2023-02-18T11:20:23;12.00;99.90
14277;DHT22;7222;57.346;12.150;2023-02-18T11:22:51;13.10;99.90
14277;DHT22;7222;57.346;12.150;2023-02-18T11:25:21;13.20;1.00
14277;DHT22;7222;57.346;12.150;2023-02-18T11:27:50;12.50;99.90
14277;DHT22;7222;57.346;12.150;2023-02-18T11:30:21;12.20;99.90
14277;DHT22;7222;57.346;12.150;2023-02-18T11:32:53;13.00;1.00
14277;DHT22;7222;57.346;12.150;2023-02-18T11:35:24;14.30;23.50
14277;DHT22;7222;57.346;12.150;2023-02-18T11:37:52;15.30;99.90
14277;DHT22;7222;57.346;12.150;2023-02-18T11:40:23;14.90;68.00
14277;DHT22;7222;57.346;12.150;2023-02-18T11:42:50;13.20;1.00
14277;DHT22;7222;57.346;12.150;2023-02-18T11:45:28;13.10;99.90
14277;DHT22;7222;57.346;12.150;2023-02-18T11:48:00;12.80;99.90
14277;DHT22;7222;57.346;12.150;2023-02-18T11:50:31;12.40;99.90
14277;DHT22;7222;57.346;12.150;2023-02-18T11:52:58;12.60;99.90
14277;DHT22;7222;57.346;12.150;2023-02-18T11:55:28;12.40;99.90
14277;DHT22;7222;57.346;12.150;2023-02-18T11:57:59;12.60;1.00
14277;DHT22;7222;57.346;12.150;2023-02-18T12:00:36;12.30;99.90
14277;DHT22;7222;57.346;12.150;2023-02-18T12:03:12;12.30;1.00
14277;DHT22;7222;57.346;12.150;2023-02-18T12:05:41;12.40;1.00
14277;DHT22;7222;57.346;12.150;2023-02-18T12:08:13;12.10;99.90
14277;DHT22;7222;57.346;12.150;2023-02-18T12:10:47;11.40;99.90
14277;DHT22;7222;57.346;12.150;2023-02-18T12:13:22;10.40;1.00
14277;DHT22;7222;57.346;12.150;2023-02-18T12:16:02;10.30;99.90
14277;DHT22;7222;57.346;12.150;2023-02-18T12:21:33;9.60;99.90
14277;DHT22;7222;57.346;12.150;2023-02-18T12:24:10;9.70;99.90
14277;DHT22;7222;57.346;12.150;2023-02-18T12:26:51;9.40;1.00
14277;DHT22;7222;57.346;12.150;2023-02-18T12:29:40;9.60;99.90
14277;DHT22;7222;57.346;12.150;2023-02-18T12:32:31;9.70;3.40
14277;DHT22;7222;57.346;12.150;2023-02-18T12:35:13;10.30;1.00
14277;DHT22;7222;57.346;12.150;2023-02-18T12:37:55;10.50;99.90
14277;DHT22;7222;57.346;12.150;2023-02-18T12:40:38;10.30;1.00
14277;DHT22;7222;57.346;12.150;2023-02-18T12:43:13;10.00;1.00
14277;DHT22;7222;57.346;12.150;2023-02-18T12:46:01;10.10;99.90
14277;DHT22;7222;57.346;12.150;2023-02-18T12:48:44;9.80;99.90
14277;DHT22;7222;57.346;12.150;2023-02-18T12:51:27;10.10;1.00
14277;DHT22;7222;57.346;12.150;2023-02-18T12:54:17;9.70;1.00
14277;DHT22;7222;57.346;12.150;2023-02-18T13:03:10;9.40;99.90
14277;DHT22;7222;57.346;12.150;2023-02-18T13:05:43;9.80;55.30
14277;DHT22;7222;57.346;12.150;2023-02-18T13:08:33;9.70;99.90
14277;DHT22;7222;57.346;12.150;2023-02-18T13:11:14;9.60;67.30
14277;DHT22;7222;57.346;12.150;2023-02-18T13:13:49;9.60;99.90
14277;DHT22;7222;57.346;12.150;2023-02-18T13:16:20;9.70;99.90
14277;DHT22;7222;57.346;12.150;2023-02-18T13:18:55;9.80;1.00
14277;DHT22;7222;57.346;12.150;2023-02-18T13:21:25;9.80;99.90
14277;DHT22;7222;57.346;12.150;2023-02-18T13:23:55;9.40;99.90
14277;DHT22;7222;57.346;12.150;2023-02-18T13:26:23;9.70;99.90
14277;DHT22;7222;57.346;12.150;2023-02-18T13:28:55;9.90;99.90
14277;DHT22;7222;57.346;12.150;2023-02-18T13:31:34;9.70;99.90
14277;DHT22;7222;57.346;12.150;2023-02-18T13:34:09;10.00;99.90
14277;DHT22;7222;57.346;12.150;2023-02-18T13:36:49;10.10;99.90
14277;DHT22;7222;57.346;12.150;2023-02-18T13:39:20;10.80;24.40
14277;DHT22;7222;57.346;12.150;2023-02-18T13:41:49;11.00;99.90
14277;DHT22;7222;57.346;12.150;2023-02-18T13:44:39;11.90;99.90
14277;DHT22;7222;57.346;12.150;2023-02-18T13:47:08;12.00;1.00
14277;DHT22;7222;57.346;12.150;2023-02-18T13:49:37;11.50;1.00
14277;DHT22;7222;57.346;12.150;2023-02-18T13:52:06;11.90;1.00
14277;DHT22;7222;57.346;12.150;2023-02-18T13:54:39;11.80;1.00
14277;DHT22;7222;57.346;12.150;2023-02-18T13:57:13;10.90;25.00
14277;DHT22;7222;57.346;12.150;2023-02-18T13:59:43;11.10;1.00
14277;DHT22;7222;57.346;12.150;2023-02-18T14:02:33;11.00;99.90
14277;DHT22;7222;57.346;12.150;2023-02-18T14:05:20;10.60;1.00
14277;DHT22;7222;57.346;12.150;2023-02-18T14:07:50;10.80;1.00
14277;DHT22;7222;57.346;12.150;2023-02-18T14:10:26;11.60;99.90
14277;DHT22;7222;57.346;12.150;2023-02-18T14:15:51;12.50;1.00
14277;DHT22;7222;57.346;12.150;2023-02-18T14:18:57;13.10;99.90
14277;DHT22;7222;57.346;12.150;2023-02-18T14:21:41;13.40;59.00
14277;DHT22;7222;57.346;12.150;2023-02-18T14:24:10;12.90;99.90
14277;DHT22;7222;57.346;12.150;2023-02-18T14:26:42;12.90;1.00
14277;DHT22;7222;57.346;12.150;2023-02-18T14:29:19;12.80;1.00
14277;DHT22;7222;57.346;12.150;2023-02-18T14:31:50;12.80;18.50
14277;DHT22;7222;57.346;12.150;2023-02-18T14:34:55;12.60;1.00
14277;DHT22;7222;57.346;12.150;2023-02-18T14:40:50;13.50;1.00
14277;DHT22;7222;57.346;12.150;2023-02-18T14:43:30;12.90;1.00
14277;DHT22;7222;57.346;12.150;2023-02-18T14:46:12;11.00;99.90
14277;DHT22;7222;57.346;12.150;2023-02-18T14:48:54;10.20;1.00
14277;DHT22;7222;57.346;12.150;2023-02-18T14:51:28;9.80;1.00
14277;DHT22;7222;57.346;12.150;2023-02-18T14:54:02;9.90;99.90
14277;DHT22;7222;57.346;12.150;2023-02-18T14:56:32;9.40;8.60
14277;DHT22;7222;57.346;12.150;2023-02-18T14:59:04;9.00;95.10
14277;DHT22;7222;57.346;12.150;2023-02-18T15:01:32;9.00;1.00
14277;DHT22;7222;57.346;12.150;2023-02-18T15:04:01;9.00;1.00
14277;DHT22;7222;57.346;12.150;2023-02-18T15:06:31;9.40;99.90
14277;DHT22;7222;57.346;12.150;2023-02-18T15:08:59;9.30;99.90
14277;DHT22;7222;57.346;12.150;2023-02-18T15:11:34;8.70;99.90
14277;DHT22;7222;57.346;12.150;2023-02-18T15:14:08;8.20;1.00
14277;DHT22;7222;57.346;12.150;2023-02-18T15:16:36;8.40;1.00
14277;DHT22;7222;57.346;12.150;2023-02-18T15:19:05;8.20;99.90
14277;DHT22;7222;57.346;12.150;2023-02-18T15:21:38;8.10;1.00
14277;DHT22;7222;57.346;12.150;2023-02-18T15:24:10;7.70;1.00
14277;DHT22;7222;57.346;12.150;2023-02-18T15:26:42;7.20;1.00
14277;DHT22;7222;57.346;12.150;2023-02-18T15:29:16;7.30;99.90
14277;DHT22;7222;57.346;12.150;2023-02-18T15:31:46;7.10;1.00
14277;DHT22;7222;57.346;12.150;2023-02-18T15:34:33;7.00;99.90
14277;DHT22;7222;57.346;12.150;2023-02-18T15:37:04;7.10;27.70
14277;DHT22;7222;57.346;12.150;2023-02-18T15:39:31;6.70;99.90
14277;DHT22;7222;57.346;12.150;2023-02-18T15:42:00;6.90;99.90
14277;DHT22;7222;57.346;12.150;2023-02-18T15:44:31;6.90;99.90
14277;DHT22;7222;57.346;12.150;2023-02-18T15:47:00;6.90;99.90
14277;DHT22;7222;57.346;12.150;2023-02-18T15:49:28;6.70;99.90
14277;DHT22;7222;57.346;12.150;2023-02-18T15:51:58;6.80;1.00
14277;DHT22;7222;57.346;12.150;2023-02-18T15:54:28;6.70;99.90
14277;DHT22;7222;57.346;12.150;2023-02-18T15:56:56;6.60;99.90
14277;DHT22;7222;57.346;12.150;2023-02-18T15:59:27;6.50;99.90
14277;DHT22;7222;57.346;12.150;2023-02-18T16:01:56;6.40;99.90
14277;DHT22;7222;57.346;12.150;2023-02-18T16:04:28;6.30;99.90
14277;DHT22;7222;57.346;12.150;2023-02-18T16:07:02;6.00;99.90
14277;DHT22;7222;57.346;12.150;2023-02-18T16:09:32;6.00;99.90
14277;DHT22;7222;57.346;12.150;2023-02-18T16:12:02;5.90;99.90
14277;DHT22;7222;57.346;12.150;2023-02-18T16:14:33;5.60;99.90
14277;DHT22;7222;57.346;12.150;2023-02-18T16:17:10;5.60;99.90
14277;DHT22;7222;57.346;12.150;2023-02-18T16:19:47;5.50;99.90
14277;DHT22;7222;57.346;12.150;2023-02-18T16:22:23;5.50;99.90
14277;DHT22;7222;57.346;12.150;2023-02-18T16:24:56;5.30;99.90
14277;DHT22;7222;57.346;12.150;2023-02-18T16:27:30;5.20;99.90
14277;DHT22;7222;57.346;12.150;2023-02-18T16:30:00;5.30;99.90